Hlavní strana
METAR-TAF:

METAR-TAF

Letiště :

Brandon, Manitoba, Kanada

zeměpisná šířka: 49-55N, zeměpisná délka: 099-57W, výška: 409 m

Aktuální stav počasí

Zpráva byla vytvořena před 20 minutami, v 04:00 UTC
Východní vítr 2 kt
Teplota -21°C
Vlhkost vzduchu 70%
Tlak 1028 hPa
Viditelnost: 24.1 km
Jasno

METAR: CYBR 160400Z 09002KT 15SM SKC M21/M25 A3035 RMK SLP322

Čas: 22:20 (04:20 UTC)

Předpověď počasí

Zpráva byla vytvořena před 4 hodinami a 39 minutami, v 23:41 UTC
Předpověď platná od 16 v 00 UTC do 16 v 12 UTC
Severoseverozápadní vítr 8 kt
Viditelnost: 10 km
Skoro jasno ve výšce 24000 ft
Změna
od 16 v 00 UTC do 16 v 02 UTC
vítr z různých směrů 3 kt

TAF: CYBR 152341Z 1600/1612 34008KT P6SM FEW240 BECMG 1600/1602 VRB03KT RMK NXT FCST BY 160600Z

Stav a předpovědi počasí z více než 4 000 letišť (zprávy METAR a TAF).

Červené a žluté tečky na mapě představují dostupné meteorologické stanice.

Když kurzor umístíte na tečku, zobrazí se název stanice.

Pak kliknutím zobrazíte stav a předpověď počasí.

Chcete-li změnit mapu, kliknutím na zelené tlačítko se znaménkem +mapu přiblížíte, kliknutím na zelené tlačítko se znaménkem – mapu oddálíte a kliknutím na zelené šipky přejdete na sousední mapy.


METAR-TAF: